Time;durP1;ratioP1;P1;durP2;ratioP2;P2;SDS_P1;SDS_P2;PMS_P1;PMS_P2;Temp;Humidity;BMP_temperature;BMP_pressure;BME280_temperature;BME280_humidity;BME280_pressure;Samples;Min_cycle;Max_cycle;Signal;HPM_P1;HPM_P2
2022/03/30 00:00:06;;;;;;;23.42;16.70;;;;;;;8.98;37.05;94473.72;5003944;28;20093;-62
2022/03/30 00:02:31;;;;;;;26.15;16.98;;;;;;;8.89;37.73;94477.50;5004565;28;20103;-62
2022/03/30 00:04:57;;;;;;;24.17;16.40;;;;;;;8.87;37.46;94467.06;5010416;28;20475;-62
2022/03/30 00:07:22;;;;;;;26.95;16.38;;;;;;;8.82;37.72;94462.38;4999681;28;20696;-63
2022/03/30 00:09:47;;;;;;;25.90;16.42;;;;;;;8.77;37.47;94464.78;5005999;28;20176;-63
2022/03/30 00:12:13;;;;;;;25.95;17.00;;;;;;;8.78;37.31;94460.28;5042329;28;20088;-63
2022/03/30 00:14:39;;;;;;;25.85;16.80;;;;;;;8.62;37.52;94466.72;5018644;28;20110;-62
2022/03/30 00:17:04;;;;;;;22.75;15.93;;;;;;;8.70;37.60;94458.59;5039248;28;20384;-63
2022/03/30 00:19:31;;;;;;;25.13;15.85;;;;;;;8.61;37.54;94462.44;5019552;28;20478;-63
2022/03/30 00:21:57;;;;;;;28.20;18.45;;;;;;;8.62;37.70;94461.41;5011702;28;20104;-62
2022/03/30 00:24:23;;;;;;;25.15;17.55;;;;;;;8.52;38.09;94451.13;5013004;28;20074;-62
2022/03/30 00:26:48;;;;;;;24.45;15.45;;;;;;;8.34;38.11;94448.97;4994682;28;20121;-63
2022/03/30 00:29:14;;;;;;;21.95;15.13;;;;;;;8.40;38.13;94442.91;4993614;28;20118;-63
2022/03/30 00:31:39;;;;;;;26.90;15.05;;;;;;;8.34;38.64;94444.50;5001805;28;20077;-63
2022/03/30 00:34:05;;;;;;;22.85;16.35;;;;;;;8.29;38.80;94446.88;5004011;28;20105;-63
2022/03/30 00:36:30;;;;;;;25.77;14.75;;;;;;;7.96;38.90;94437.66;5027500;28;20539;-62
2022/03/30 00:38:56;;;;;;;29.55;16.55;;;;;;;7.99;39.34;94433.81;5025152;28;20113;-63
2022/03/30 00:41:21;;;;;;;24.63;15.48;;;;;;;8.01;39.41;94429.13;5039338;28;20101;-62
2022/03/30 00:43:46;;;;;;;27.60;15.68;;;;;;;7.88;39.61;94432.47;5030614;28;20097;-62
2022/03/30 00:46:12;;;;;;;24.48;16.20;;;;;;;7.79;40.65;94427.31;5031667;28;20113;-63
2022/03/30 00:48:37;;;;;;;25.08;15.77;;;;;;;7.88;39.39;94428.00;5034062;28;20125;-61
2022/03/30 00:51:03;;;;;;;29.88;16.38;;;;;;;7.92;39.82;94425.78;4987336;28;20504;-62
2022/03/30 00:53:28;;;;;;;22.63;14.38;;;;;;;7.81;39.38;94423.66;4997493;28;20109;-63
2022/03/30 00:55:54;;;;;;;27.10;15.82;;;;;;;7.75;39.59;94418.06;4994933;28;20082;-62
2022/03/30 00:58:22;;;;;;;21.38;13.40;;;;;;;7.64;39.61;94424.72;5001223;28;20459;-63
2022/03/30 01:00:48;;;;;;;26.02;17.13;;;;;;;7.54;40.63;94422.38;5002019;28;20094;-63
2022/03/30 01:03:14;;;;;;;23.00;15.93;;;;;;;7.57;39.88;94418.53;4992902;28;20113;-62
2022/03/30 01:05:39;;;;;;;20.23;14.48;;;;;;;7.59;39.90;94419.16;4994749;28;20303;-63
2022/03/30 01:08:05;;;;;;;25.48;16.63;;;;;;;7.62;40.03;94413.47;4993543;28;20290;-62
2022/03/30 01:10:31;;;;;;;23.95;16.50;;;;;;;7.55;40.12;94409.94;4997198;28;20103;-63
2022/03/30 01:12:56;;;;;;;25.83;16.38;;;;;;;7.57;40.21;94404.44;4995169;28;20424;-62
2022/03/30 01:15:22;;;;;;;23.85;16.80;;;;;;;7.61;40.31;94408.34;5002315;28;20156;-61
2022/03/30 01:17:48;;;;;;;26.70;15.65;;;;;;;7.54;40.91;94409.13;4995896;28;20587;-62
2022/03/30 01:20:16;;;;;;;23.35;15.18;;;;;;;7.49;40.68;94400.94;5000991;28;20078;-63
2022/03/30 01:22:42;;;;;;;24.73;15.60;;;;;;;7.42;40.94;94397.41;4999245;28;20110;-61
2022/03/30 01:25:07;;;;;;;25.23;14.63;;;;;;;7.43;40.53;94392.91;5000551;28;20082;-62
2022/03/30 01:27:33;;;;;;;25.90;16.55;;;;;;;7.36;41.62;94393.66;5004501;28;20101;-61
2022/03/30 01:32:42;;;;;;;24.02;16.13;;;;;;;7.50;41.04;94369.97;4993544;28;20139;-63
2022/03/30 01:35:10;;;;;;;27.63;16.58;;;;;;;7.41;41.31;94363.97;5002478;28;20122;-62
2022/03/30 01:37:35;;;;;;;26.38;15.93;;;;;;;7.41;41.27;94362.13;5002835;28;20104;-62
2022/03/30 01:40:04;;;;;;;25.83;16.42;;;;;;;7.45;41.04;94367.06;4990902;28;20074;-62
2022/03/30 01:42:30;;;;;;;26.42;16.52;;;;;;;7.33;41.16;94362.25;5002006;28;20110;-61
2022/03/30 01:44:55;;;;;;;19.27;12.48;;;;;;;7.17;41.05;94358.03;4990419;28;20082;-62
2022/03/30 01:47:21;;;;;;;25.90;17.00;;;;;;;7.32;41.29;94349.22;5003564;28;20718;-62
2022/03/30 01:49:46;;;;;;;20.98;14.23;;;;;;;7.30;41.29;94360.00;4991796;28;20201;-62
2022/03/30 01:52:14;;;;;;;24.70;16.05;;;;;;;7.37;41.07;94345.00;5002012;28;20160;-62
2022/03/30 01:54:40;;;;;;;25.58;16.08;;;;;;;7.35;41.15;94343.53;5001994;28;20136;-62
2022/03/30 01:57:06;;;;;;;26.52;17.08;;;;;;;7.32;41.52;94342.09;5003309;28;20085;-61
2022/03/30 01:59:32;;;;;;;27.95;17.00;;;;;;;7.41;41.12;94335.66;4996779;28;20078;-62
2022/03/30 02:01:57;;;;;;;23.65;15.35;;;;;;;7.38;41.22;94335.22;4997076;28;20102;-63
2022/03/30 02:04:24;;;;;;;23.67;15.82;;;;;;;7.39;41.23;94331.56;4998629;28;20075;-63
2022/03/30 02:06:49;;;;;;;24.63;16.73;;;;;;;7.37;41.24;94330.94;4995237;28;20110;-63
2022/03/30 02:09:15;;;;;;;21.73;15.00;;;;;;;7.23;41.44;94329.97;4990341;28;20082;-63
2022/03/30 02:11:40;;;;;;;25.05;16.00;;;;;;;7.19;41.65;94326.06;4993122;28;20074;-61
2022/03/30 02:14:06;;;;;;;23.98;16.55;;;;;;;7.05;42.05;94333.06;5001298;28;20365;-62
2022/03/30 02:16:31;;;;;;;26.27;16.17;;;;;;;7.09;41.76;94329.03;4992713;28;20098;-63
2022/03/30 02:18:57;;;;;;;29.05;16.55;;;;;;;6.94;42.13;94334.38;5001123;28;20128;-62
2022/03/30 02:21:24;;;;;;;26.42;17.65;;;;;;;6.84;42.33;94335.47;5002190;28;20459;-62
2022/03/30 02:23:49;;;;;;;25.48;16.50;;;;;;;6.89;42.31;94330.47;5003368;28;20319;-65
2022/03/30 02:26:14;;;;;;;29.80;16.98;;;;;;;7.00;42.00;94328.31;4999849;28;20102;-63
2022/03/30 02:28:52;;;;;;;23.30;15.77;;;;;;;6.86;42.63;94330.81;5001894;28;20110;-65
2022/03/30 02:31:18;;;;;;;25.23;17.07;;;;;;;6.69;42.62;94332.88;4989970;28;20102;-64
2022/03/30 02:33:44;;;;;;;21.48;13.70;;;;;;;6.69;42.70;94330.22;5003381;28;20308;-64
2022/03/30 02:36:10;;;;;;;25.55;17.65;;;;;;;6.74;42.90;94325.19;4990398;28;20076;-64
2022/03/30 02:38:35;;;;;;;23.98;16.15;;;;;;;6.77;42.77;94324.03;4993965;28;20157;-65
2022/03/30 02:41:03;;;;;;;22.65;14.05;;;;;;;6.60;42.39;94321.56;4986949;28;20271;-65
2022/03/30 02:43:28;;;;;;;24.80;15.98;;;;;;;6.72;42.58;94313.16;4993765;28;20484;-65
2022/03/30 02:45:54;;;;;;;19.77;12.95;;;;;;;6.45;42.82;94311.00;4992561;28;20109;-65
2022/03/30 02:48:19;;;;;;;24.02;15.77;;;;;;;6.53;43.13;94310.09;4989698;28;20090;-65
2022/03/30 02:50:49;;;;;;;20.05;13.75;;;;;;;6.21;43.32;94318.22;5021413;28;20132;-65
2022/03/30 02:53:15;;;;;;;26.38;16.17;;;;;;;6.44;43.13;94311.16;5030614;28;20535;-65
2022/03/30 02:55:41;;;;;;;17.15;11.02;;;;;;;6.29;42.36;94312.00;5041455;28;20571;-65
2022/03/30 02:58:06;;;;;;;27.60;17.27;;;;;;;6.52;42.47;94315.59;5042123;28;20109;-65
2022/03/30 03:00:32;;;;;;;23.58;15.60;;;;;;;6.38;42.55;94307.44;5024721;28;20102;-65
2022/03/30 03:02:58;;;;;;;25.48;16.38;;;;;;;6.56;42.46;94300.97;4987930;28;20111;-65
2022/03/30 03:05:26;;;;;;;27.38;16.13;;;;;;;6.18;42.46;94305.34;4994677;28;20111;-65
2022/03/30 03:07:52;;;;;;;27.40;16.27;;;;;;;6.40;43.21;94308.09;4994103;28;20598;-65
2022/03/30 03:10:17;;;;;;;25.88;16.90;;;;;;;6.54;42.87;94303.81;5007630;28;20106;-65
2022/03/30 03:12:42;;;;;;;27.40;17.90;;;;;;;6.44;42.79;94304.06;5014748;28;20078;-65
2022/03/30 03:15:08;;;;;;;28.02;16.38;;;;;;;6.56;42.50;94298.34;5032475;28;20465;-63
2022/03/30 03:17:33;;;;;;;23.02;16.20;;;;;;;6.63;42.34;94296.56;5007911;28;20196;-63
2022/03/30 03:19:59;;;;;;;27.58;17.55;;;;;;;6.54;42.41;94295.03;4996226;28;20078;-63
2022/03/30 03:22:24;;;;;;;26.27;17.17;;;;;;;6.61;42.24;94291.50;5025877;28;20116;-63
2022/03/30 03:24:50;;;;;;;24.65;16.10;;;;;;;6.41;42.77;94291.22;5016138;28;20090;-65
2022/03/30 03:27:15;;;;;;;23.15;15.30;;;;;;;6.24;43.41;94288.78;5041655;28;20101;-65
2022/03/30 03:29:40;;;;;;;26.52;16.35;;;;;;;6.21;43.14;94289.13;5015202;28;20121;-65
2022/03/30 03:32:06;;;;;;;23.42;16.92;;;;;;;6.10;43.61;94292.22;5042029;28;20327;-65
2022/03/30 03:34:32;;;;;;;26.55;17.63;;;;;;;6.21;43.45;94294.41;5015039;28;20141;-65
2022/03/30 03:36:57;;;;;;;24.83;15.35;;;;;;;6.13;43.53;94287.38;5038361;28;20436;-65
2022/03/30 03:39:22;;;;;;;25.42;17.00;;;;;;;6.04;43.77;94277.94;5011571;28;20125;-65
2022/03/30 03:41:48;;;;;;;27.05;17.38;;;;;;;6.23;43.38;94286.31;5039815;28;20115;-65
2022/03/30 03:44:13;;;;;;;23.25;15.05;;;;;;;5.91;43.31;94273.28;5021559;28;20077;-65
2022/03/30 03:46:39;;;;;;;27.13;17.15;;;;;;;6.24;43.34;94282.66;5036067;28;20421;-66
2022/03/30 03:49:04;;;;;;;28.55;18.02;;;;;;;6.35;42.69;94271.63;5025134;28;20094;-65
2022/03/30 03:51:30;;;;;;;27.20;17.38;;;;;;;6.41;42.98;94272.72;5017322;28;20113;-65
2022/03/30 03:53:55;;;;;;;24.80;17.15;;;;;;;6.46;42.74;94275.59;5014970;28;20099;-65
2022/03/30 03:56:21;;;;;;;28.85;16.88;;;;;;;6.30;43.29;94267.88;5015813;28;20082;-65
2022/03/30 03:58:49;;;;;;;27.55;17.92;;;;;;;6.49;43.03;94264.69;5016529;28;20109;-65
2022/03/30 04:01:14;;;;;;;28.00;17.45;;;;;;;6.53;42.30;94269.63;5021009;28;20189;-65
2022/03/30 04:03:42;;;;;;;27.10;18.30;;;;;;;6.41;42.54;94264.78;5012743;28;20082;-65
2022/03/30 04:06:07;;;;;;;24.95;16.77;;;;;;;6.46;42.77;94270.31;5025200;28;20113;-65
2022/03/30 04:08:34;;;;;;;24.48;16.95;;;;;;;6.41;42.80;94264.78;5014787;28;20463;-65
2022/03/30 04:10:59;;;;;;;23.88;15.15;;;;;;;6.31;42.96;94264.22;5006201;28;20160;-65
2022/03/30 04:13:25;;;;;;;24.85;16.20;;;;;;;6.24;43.40;94267.63;4989323;28;20543;-65
2022/03/30 04:15:51;;;;;;;27.35;17.40;;;;;;;6.04;43.71;94267.34;5013212;28;20070;-65
2022/03/30 04:18:16;;;;;;;26.70;16.73;;;;;;;6.25;43.12;94265.78;5008706;28;20149;-66
2022/03/30 04:20:43;;;;;;;29.08;16.70;;;;;;;6.37;43.19;94260.84;5022996;28;20077;-65
2022/03/30 04:23:08;;;;;;;28.20;16.42;;;;;;;6.28;43.19;94257.50;5030529;28;20110;-65
2022/03/30 04:25:34;;;;;;;27.27;17.25;;;;;;;6.34;43.32;94245.38;5032904;28;20549;-65
2022/03/30 04:27:59;;;;;;;20.08;11.68;;;;;;;6.06;43.43;94246.03;5034300;28;20111;-66
2022/03/30 04:30:25;;;;;;;23.20;14.77;;;;;;;6.04;43.24;94245.38;5028168;28;20101;-65
2022/03/30 04:32:51;;;;;;;28.25;17.58;;;;;;;6.12;43.54;94234.72;5018186;28;20140;-63
2022/03/30 04:35:25;;;;;;;25.60;17.35;;;;;;;6.23;42.89;94234.25;5044180;28;20617;-63
2022/03/30 04:37:52;;;;;;;30.20;18.08;;;;;;;6.23;43.14;94228.16;5019416;28;20102;-64
2022/03/30 04:40:17;;;;;;;27.98;18.73;;;;;;;6.16;43.21;94224.63;4991648;28;20086;-63
2022/03/30 04:42:43;;;;;;;26.23;18.08;;;;;;;6.11;43.43;94226.00;5003444;28;20472;-64
2022/03/30 04:45:08;;;;;;;31.48;18.40;;;;;;;6.21;43.04;94231.00;5006329;28;20451;-64
2022/03/30 04:47:34;;;;;;;29.65;17.73;;;;;;;6.17;43.00;94232.38;5013606;28;20090;-65
2022/03/30 04:49:59;;;;;;;27.50;17.65;;;;;;;6.10;42.83;94224.34;5020045;28;20114;-65
2022/03/30 04:52:25;;;;;;;27.27;17.38;;;;;;;6.16;42.49;94227.25;5024111;28;20093;-65
2022/03/30 04:54:50;;;;;;;30.90;17.48;;;;;;;6.19;42.83;94227.69;5000766;28;20111;-65
2022/03/30 04:57:16;;;;;;;26.63;16.75;;;;;;;6.20;43.22;94229.34;5002459;28;20078;-65
2022/03/30 04:59:42;;;;;;;28.55;17.60;;;;;;;6.18;43.00;94231.34;5030692;28;20386;-65
2022/03/30 05:02:08;;;;;;;26.92;17.02;;;;;;;6.15;43.28;94223.78;5030278;28;20109;-65
2022/03/30 05:04:33;;;;;;;28.02;16.90;;;;;;;6.00;43.49;94226.44;5018250;28;20090;-65
2022/03/30 05:06:59;;;;;;;27.15;16.25;;;;;;;5.98;43.40;94226.63;5044115;28;20154;-65
2022/03/30 05:09:24;;;;;;;24.80;15.98;;;;;;;6.03;43.14;94227.91;5009127;28;20110;-65
2022/03/30 05:11:50;;;;;;;25.85;15.43;;;;;;;6.09;42.66;94229.81;4996598;28;20087;-65
2022/03/30 05:14:16;;;;;;;23.42;15.95;;;;;;;5.99;43.28;94233.56;4986646;28;20110;-65
2022/03/30 05:16:41;;;;;;;26.92;15.68;;;;;;;6.04;43.50;94227.72;5002946;28;20079;-65
2022/03/30 05:19:07;;;;;;;24.65;15.18;;;;;;;6.03;43.51;94225.25;5000662;28;20098;-66
2022/03/30 05:21:32;;;;;;;23.58;15.90;;;;;;;6.04;43.25;94222.44;5002566;28;20542;-66
2022/03/30 05:23:57;;;;;;;25.92;15.60;;;;;;;6.02;43.39;94221.00;4999121;28;20129;-66
2022/03/30 05:26:23;;;;;;;24.90;13.48;;;;;;;6.02;43.65;94224.44;5003666;28;20106;-66
2022/03/30 05:28:48;;;;;;;24.92;16.85;;;;;;;6.09;43.05;94217.41;4998547;28;20259;-66
2022/03/30 05:31:14;;;;;;;26.23;16.48;;;;;;;6.18;42.65;94210.22;5002920;28;20152;-66
2022/03/30 05:33:39;;;;;;;21.08;14.07;;;;;;;5.91;43.34;94211.72;4997342;28;20598;-65
2022/03/30 05:36:05;;;;;;;22.15;13.98;;;;;;;5.89;43.04;94209.25;4993712;28;20086;-65
2022/03/30 05:38:30;;;;;;;30.67;17.40;;;;;;;5.93;43.58;94207.06;4991673;28;20094;-65
2022/03/30 05:40:56;;;;;;;21.77;15.88;;;;;;;6.06;43.31;94209.03;4987945;28;20393;-65
2022/03/30 05:43:21;;;;;;;27.08;16.67;;;;;;;6.11;43.73;94198.72;5021572;28;20097;-65
2022/03/30 05:45:47;;;;;;;23.77;15.90;;;;;;;6.12;43.07;94208.28;5017342;28;20462;-65
2022/03/30 05:48:12;;;;;;;23.50;15.05;;;;;;;6.11;43.33;94204.84;5013406;28;20101;-65
2022/03/30 05:50:39;;;;;;;26.25;15.68;;;;;;;6.08;43.31;94215.78;5014835;28;20112;-65
2022/03/30 05:53:05;;;;;;;23.98;16.08;;;;;;;6.05;43.51;94215.34;5022300;28;21276;-65
2022/03/30 05:55:31;;;;;;;25.42;16.33;;;;;;;6.20;42.97;94208.22;5014102;28;20071;-66
2022/03/30 05:57:57;;;;;;;23.48;16.38;;;;;;;6.23;43.04;94210.47;5010393;28;20149;-65
2022/03/30 06:00:22;;;;;;;23.00;15.80;;;;;;;6.27;42.86;94213.56;5011779;28;20105;-65
2022/03/30 06:02:47;;;;;;;21.80;14.82;;;;;;;6.23;43.17;94214.94;5013551;28;20102;-66
2022/03/30 06:05:13;;;;;;;24.17;16.58;;;;;;;6.17;43.11;94218.31;5018049;28;20082;-66
2022/03/30 06:07:38;;;;;;;22.33;14.07;;;;;;;5.98;43.21;94220.53;4991973;28;20152;-65
2022/03/30 06:10:04;;;;;;;22.77;15.27;;;;;;;6.23;42.64;94215.75;5009893;28;20610;-65
2022/03/30 06:12:30;;;;;;;24.60;15.88;;;;;;;6.11;42.90;94231.28;5032223;28;20072;-65
2022/03/30 06:14:55;;;;;;;22.35;14.15;;;;;;;5.96;43.40;94219.91;4993484;28;20099;-65
2022/03/30 06:17:21;;;;;;;22.35;15.07;;;;;;;6.09;43.41;94225.34;4997605;28;20102;-65
2022/03/30 06:19:50;;;;;;;23.30;15.02;;;;;;;6.14;42.74;94230.09;4989689;28;20487;-66
2022/03/30 06:22:16;;;;;;;23.63;15.23;;;;;;;6.23;43.11;94228.16;4994246;28;20318;-65
2022/03/30 06:24:42;;;;;;;23.88;15.25;;;;;;;6.15;42.72;94228.28;4995507;28;20086;-66
2022/03/30 06:27:09;;;;;;;22.40;15.07;;;;;;;6.19;42.93;94232.97;4991984;28;20110;-66
2022/03/30 06:29:35;;;;;;;27.42;16.35;;;;;;;6.12;43.16;94230.25;4989997;28;20129;-66
2022/03/30 06:32:00;;;;;;;26.42;16.23;;;;;;;6.36;42.60;94230.94;5025419;28;20082;-66
2022/03/30 06:34:26;;;;;;;21.30;15.18;;;;;;;6.37;42.84;94234.44;5031047;28;20113;-65
2022/03/30 06:36:51;;;;;;;24.42;15.45;;;;;;;6.46;42.88;94238.59;5009765;28;20368;-66
2022/03/30 06:39:16;;;;;;;25.05;15.95;;;;;;;6.55;42.19;94225.28;4993571;28;21901;-66
2022/03/30 06:41:43;;;;;;;23.08;15.20;;;;;;;6.69;42.04;94220.94;4988023;28;20106;-66
2022/03/30 06:44:09;;;;;;;22.48;15.88;;;;;;;6.75;42.34;94215.75;4993355;28;20075;-66
2022/03/30 06:46:38;;;;;;;24.25;14.68;;;;;;;6.80;42.18;94215.16;4992658;28;20106;-66
2022/03/30 06:49:04;;;;;;;24.88;16.30;;;;;;;6.83;42.35;94222.72;4996004;28;20102;-66
2022/03/30 06:51:30;;;;;;;22.67;16.02;;;;;;;6.83;41.91;94219.28;4994678;28;20326;-65
2022/03/30 06:53:55;;;;;;;25.48;17.05;;;;;;;6.89;41.86;94216.69;4989090;28;20441;-66
2022/03/30 06:56:21;;;;;;;26.48;17.25;;;;;;;6.87;41.82;94221.34;4997579;28;20081;-66
2022/03/30 06:58:47;;;;;;;27.00;17.15;;;;;;;6.97;41.70;94221.03;4983715;28;20539;-66
2022/03/30 07:01:14;;;;;;;23.38;15.10;;;;;;;6.96;41.73;94222.03;4988289;28;20337;-66
2022/03/30 07:03:40;;;;;;;25.23;14.77;;;;;;;7.13;41.44;94219.13;4997405;28;20137;-66
2022/03/30 07:06:05;;;;;;;21.58;14.40;;;;;;;7.24;41.36;94223.09;5011533;28;20602;-66
2022/03/30 07:11:14;;;;;;;24.83;15.40;;;;;;;7.40;41.22;94222.00;4993040;28;20196;-67
2022/03/30 07:13:40;;;;;;;30.25;20.83;;;;;;;7.20;41.40;94224.47;4984746;28;20120;-66
2022/03/30 07:16:05;;;;;;;22.58;14.63;;;;;;;7.45;41.00;94219.56;4993997;28;20529;-66
2022/03/30 07:18:31;;;;;;;23.27;15.70;;;;;;;7.64;40.42;94222.56;4984955;28;20560;-66
2022/03/30 07:20:56;;;;;;;19.55;13.75;;;;;;;7.78;40.48;94218.19;4984486;28;20082;-66
2022/03/30 07:23:23;;;;;;;24.85;14.57;;;;;;;7.86;40.49;94217.22;4994473;28;21512;-66
2022/03/30 07:25:49;;;;;;;24.80;16.17;;;;;;;8.02;39.95;94213.41;4987763;28;20134;-65
2022/03/30 07:28:16;;;;;;;20.88;14.23;;;;;;;8.23;39.99;94209.84;5014069;28;20140;-66
2022/03/30 07:30:43;;;;;;;22.65;16.38;;;;;;;8.34;39.72;94215.63;5012446;28;20403;-66
2022/03/30 07:33:08;;;;;;;23.58;15.10;;;;;;;8.41;39.88;94209.34;5014317;28;20531;-65
2022/03/30 07:35:34;;;;;;;30.88;20.27;;;;;;;8.33;39.76;94206.81;5006473;28;20090;-66
2022/03/30 07:38:00;;;;;;;20.52;15.10;;;;;;;8.53;39.06;94201.59;5020189;28;20105;-66
2022/03/30 07:40:25;;;;;;;21.60;14.32;;;;;;;8.69;38.67;94205.72;5016322;28;20112;-65
2022/03/30 07:42:51;;;;;;;24.60;16.05;;;;;;;8.75;38.55;94203.28;5010197;28;20456;-66
2022/03/30 07:45:17;;;;;;;26.45;16.15;;;;;;;8.78;38.73;94208.19;5008201;28;20326;-67
2022/03/30 07:47:42;;;;;;;21.40;15.02;;;;;;;8.89;38.60;94204.13;5011779;28;20105;-66
2022/03/30 07:50:08;;;;;;;22.30;13.93;;;;;;;9.03;38.19;94203.16;5017036;28;20109;-67
2022/03/30 07:52:34;;;;;;;31.33;21.42;;;;;;;9.10;38.26;94204.97;5007788;28;20082;-66
2022/03/30 07:55:00;;;;;;;24.05;15.25;;;;;;;9.26;37.75;94209.91;5009643;28;20193;-66
2022/03/30 07:57:28;;;;;;;24.40;15.82;;;;;;;9.24;38.48;94205.81;5014897;28;20109;-66
2022/03/30 07:59:54;;;;;;;;;;;;;;;9.44;38.02;94211.13;5015657;28;20315;-66
2022/03/30 08:02:19;;;;;;;31.20;23.33;;;;;;;9.40;36.53;94212.53;5006980;28;19989;-66
2022/03/30 08:04:45;;;;;;;20.40;14.38;;;;;;;9.52;37.42;94212.75;5019972;28;20181;-67
2022/03/30 08:07:10;;;;;;;23.48;16.63;;;;;;;9.66;37.26;94213.56;5016682;28;20621;-67
2022/03/30 08:09:36;;;;;;;25.92;15.15;;;;;;;9.79;36.60;94208.22;5015307;28;20114;-68
2022/03/30 08:12:01;;;;;;;24.60;18.13;;;;;;;9.85;37.10;94202.06;5015607;28;20089;-67
2022/03/30 08:14:27;;;;;;;21.33;13.63;;;;;;;9.82;36.38;94204.31;5013215;28;20129;-68
2022/03/30 08:16:52;;;;;;;24.73;18.33;;;;;;;9.86;35.85;94200.22;5011740;28;20070;-69
2022/03/30 08:19:17;;;;;;;20.13;12.68;;;;;;;10.09;36.58;94205.09;5005223;28;20119;-69
2022/03/30 08:24:27;;;;;;;19.50;12.05;;;;;;;10.55;35.55;94197.16;5015754;28;20713;-69
2022/03/30 08:26:52;;;;;;;17.95;11.85;;;;;;;10.74;35.03;94200.72;5015686;28;20254;-70
2022/03/30 08:29:18;;;;;;;21.58;11.05;;;;;;;10.87;35.06;94196.34;5005030;28;20126;-71
2022/03/30 08:31:44;;;;;;;19.02;11.52;;;;;;;10.90;34.05;94192.41;5001147;28;20093;-72
2022/03/30 08:34:09;;;;;;;17.58;12.43;;;;;;;10.90;33.76;94197.75;5011337;28;20116;-72
2022/03/30 08:36:35;;;;;;;21.50;13.15;;;;;;;10.62;33.73;94192.56;5007270;28;20096;-70
2022/03/30 08:39:05;;;;;;;23.00;16.27;;;;;;;10.59;33.90;94189.53;5014039;28;20251;-70
2022/03/30 08:41:31;;;;;;;20.75;14.70;;;;;;;10.62;33.93;94191.78;5012194;28;20104;-70
2022/03/30 08:43:56;;;;;;;20.02;11.63;;;;;;;10.73;34.46;94193.78;5019750;28;20086;-70
2022/03/30 08:46:21;;;;;;;20.27;12.90;;;;;;;10.72;32.90;94197.44;4999843;28;20116;-70
2022/03/30 08:48:47;;;;;;;22.95;15.57;;;;;;;10.44;33.43;94197.81;5017189;28;20480;-69
2022/03/30 08:51:12;;;;;;;23.83;13.25;;;;;;;10.74;33.50;94190.06;5008850;28;20099;-70
2022/03/30 08:53:37;;;;;;;24.48;17.23;;;;;;;10.54;33.02;94198.16;5001868;28;20107;-69
2022/03/30 08:56:03;;;;;;;25.63;17.60;;;;;;;10.52;33.18;94194.91;5008124;28;20152;-69
2022/03/30 08:58:29;;;;;;;24.88;15.38;;;;;;;10.86;32.58;94195.53;5009174;28;20113;-70
2022/03/30 09:01:05;;;;;;;29.95;19.73;;;;;;;11.12;32.35;94190.28;5013164;28;20101;-70
2022/03/30 09:03:31;;;;;;;17.60;11.63;;;;;;;11.33;31.63;94190.91;4992477;28;20103;-69
2022/03/30 09:05:56;;;;;;;22.08;12.38;;;;;;;11.41;31.70;94193.31;4987765;28;20117;-69
2022/03/30 09:08:25;;;;;;;28.17;20.02;;;;;;;11.40;31.87;94197.00;4990793;28;20182;-69
2022/03/30 09:10:51;;;;;;;23.95;13.25;;;;;;;11.61;31.67;94203.81;4989322;28;20118;-70
2022/03/30 09:13:20;;;;;;;22.48;15.27;;;;;;;11.08;31.26;94199.69;5003728;28;20560;-69
2022/03/30 09:15:46;;;;;;;18.50;12.93;;;;;;;11.35;30.75;94195.00;5012116;28;20459;-69
2022/03/30 09:18:14;;;;;;;27.38;15.70;;;;;;;11.41;30.63;94193.31;5008594;28;20084;-69
2022/03/30 09:20:40;;;;;;;18.60;11.38;;;;;;;11.82;30.63;94193.75;4991240;28;20086;-69
2022/03/30 09:23:08;;;;;;;17.60;10.70;;;;;;;12.05;30.57;94189.63;4994629;28;20527;-69
2022/03/30 09:25:34;;;;;;;16.13;10.50;;;;;;;12.49;29.14;94183.38;4998692;28;20102;-69
2022/03/30 09:27:59;;;;;;;17.25;10.23;;;;;;;12.44;29.51;94186.72;4989623;28;20457;-69
2022/03/30 09:30:26;;;;;;;17.88;11.55;;;;;;;12.66;28.78;94189.72;5019084;28;20115;-69
2022/03/30 09:32:53;;;;;;;20.85;14.45;;;;;;;12.54;29.15;94181.66;5019898;28;20215;-66
2022/03/30 09:35:38;;;;;;;16.48;11.25;;;;;;;12.73;29.26;94191.47;4987572;28;20109;-69
2022/03/30 09:38:08;;;;;;;20.73;14.70;;;;;;;13.00;28.90;94177.78;4993163;28;20227;-68
2022/03/30 09:40:37;;;;;;;30.15;21.23;;;;;;;12.92;28.38;94179.69;4997532;28;20083;-72
2022/03/30 09:43:12;;;;;;;23.40;15.23;;;;;;;12.21;28.70;94174.09;5001943;28;20532;-67
2022/03/30 09:45:38;;;;;;;21.40;11.02;;;;;;;12.90;28.62;94171.13;5007013;28;20554;-75
2022/03/30 09:48:23;;;;;;;41.38;23.20;;;;;;;12.96;27.98;94174.72;5007915;28;20083;-72
2022/03/30 09:50:53;;;;;;;24.35;15.02;;;;;;;13.36;27.92;94161.81;5027835;28;20102;-73
2022/03/30 09:53:21;;;;;;;65.72;38.80;;;;;;;12.97;28.32;94167.50;5025141;28;20125;-75
2022/03/30 09:55:56;;;;;;;32.92;22.38;;;;;;;13.17;28.28;94170.75;5041664;28;20091;-74
2022/03/30 09:58:23;;;;;;;21.50;12.50;;;;;;;13.15;29.12;94170.13;5040915;28;20092;-74
2022/03/30 10:01:09;;;;;;;19.33;12.40;;;;;;;11.60;30.77;94169.38;5042602;28;20132;-75
2022/03/30 10:03:48;;;;;;;24.45;15.65;;;;;;;12.91;29.32;94164.72;5043000;28;20332;-73
2022/03/30 10:06:18;;;;;;;17.98;11.70;;;;;;;9.23;33.18;94175.78;5039265;28;20191;-75
2022/03/30 10:08:45;;;;;;;30.55;21.35;;;;;;;9.56;34.00;94177.59;5010126;28;20670;-75
2022/03/30 10:11:12;;;;;;;26.42;15.63;;;;;;;9.63;31.79;94168.78;5042272;28;20639;-74
2022/03/30 10:13:38;;;;;;;39.37;22.33;;;;;;;9.88;32.00;94174.25;5039898;28;20198;-70
2022/03/30 10:16:05;;;;;;;21.55;16.40;;;;;;;11.16;30.55;94153.34;5041259;28;20081;-72
2022/03/30 10:18:32;;;;;;;19.87;13.87;;;;;;;9.94;31.87;94169.94;5040013;28;20097;-72
2022/03/30 10:21:22;;;;;;;18.00;11.63;;;;;;;11.17;30.30;94155.81;5022055;28;20070;-74
2022/03/30 10:24:12;;;;;;;21.67;12.00;;;;;;;11.85;29.53;94150.66;5003034;28;20460;-72
2022/03/30 10:27:05;;;;;;;17.77;11.77;;;;;;;11.85;28.44;94153.31;5025062;28;20130;-74
2022/03/30 10:29:31;;;;;;;18.42;12.57;;;;;;;11.63;29.99;94148.41;5041936;28;20102;-75
2022/03/30 10:32:17;;;;;;;25.92;17.25;;;;;;;12.16;29.56;94145.41;5040736;28;20084;-73
2022/03/30 10:35:00;;;;;;;18.13;10.80;;;;;;;12.33;29.39;94137.59;5042059;28;20314;-71
2022/03/30 10:37:38;;;;;;;18.10;12.20;;;;;;;12.23;29.82;94147.97;5030214;28;20588;-73
2022/03/30 10:40:03;;;;;;;16.88;11.40;;;;;;;12.73;28.60;94146.09;5022520;28;20071;-75
2022/03/30 10:42:47;;;;;;;24.27;17.10;;;;;;;10.93;31.27;94152.88;5018406;28;20096;-73
2022/03/30 10:45:26;;;;;;;21.05;13.38;;;;;;;12.63;29.48;94142.13;5007196;28;20069;-74
2022/03/30 10:48:14;;;;;;;22.73;14.65;;;;;;;12.94;27.80;94139.41;4989726;28;20067;-74
2022/03/30 10:50:59;;;;;;;23.77;15.68;;;;;;;10.21;32.98;94161.91;4994892;28;20102;-75
2022/03/30 10:53:34;;;;;;;21.30;14.35;;;;;;;10.17;30.23;94150.06;5006184;28;20123;-76
2022/03/30 10:56:14;;;;;;;17.98;11.00;;;;;;;10.75;30.34;94141.13;5014271;28;20119;-76
2022/03/30 10:58:48;;;;;;;15.10;10.05;;;;;;;12.55;28.52;94131.78;5024435;28;20101;-76
2022/03/30 11:01:22;;;;;;;18.10;11.38;;;;;;;12.42;27.50;94133.56;5035059;28;20288;-74
2022/03/30 11:04:18;;;;;;;19.27;11.88;;;;;;;12.17;27.44;94131.00;4988492;28;20083;-74
2022/03/30 11:07:07;;;;;;;17.17;10.52;;;;;;;13.10;27.10;94126.44;5000709;28;20634;-74
2022/03/30 11:09:34;;;;;;;23.35;14.27;;;;;;;12.32;28.61;94129.81;4992846;28;20114;-77
2022/03/30 11:12:12;;;;;;;19.25;11.75;;;;;;;12.23;29.05;94127.47;4999290;28;20535;-75
2022/03/30 11:14:43;;;;;;;22.52;13.60;;;;;;;13.00;30.33;94116.34;4999797;28;20180;-73
2022/03/30 11:17:29;;;;;;;23.95;14.30;;;;;;;13.51;27.25;94107.88;4999614;28;20144;-74
2022/03/30 11:19:55;;;;;;;19.83;12.07;;;;;;;11.15;29.47;94115.25;5001251;28;20661;-75
2022/03/30 11:22:28;;;;;;;19.15;13.20;;;;;;;12.57;27.21;94111.00;5001184;28;20146;-74
2022/03/30 11:25:20;;;;;;;16.77;11.50;;;;;;;11.26;30.36;94105.72;5002790;28;20568;-75
2022/03/30 11:27:58;;;;;;;18.98;12.25;;;;;;;12.90;26.47;94098.19;5016956;28;20927;-76
2022/03/30 11:30:24;;;;;;;22.20;12.27;;;;;;;10.81;28.33;94112.81;5017879;28;20338;-75
2022/03/30 11:32:49;;;;;;;16.58;11.38;;;;;;;9.61;32.05;94115.03;5021093;28;20078;-76